Time;durP1;ratioP1;P1;durP2;ratioP2;P2;SDS_P1;SDS_P2;PMS_P1;PMS_P2;Temp;Humidity;BMP_temperature;BMP_pressure;BME280_temperature;BME280_humidity;BME280_pressure;Samples;Min_cycle;Max_cycle;Signal;HPM_P1;HPM_P2
2022/04/03 00:00:57;;;;;;;7.30;3.47;;;;;;;2.89;53.42;102277.66;5116073;28;20042;-65
2022/04/03 00:03:23;;;;;;;6.40;3.35;;;;;;;2.82;53.00;102285.88;5116873;28;20028;-64
2022/04/03 00:05:49;;;;;;;5.93;3.47;;;;;;;2.66;53.79;102277.88;5115952;28;20022;-64
2022/04/03 00:08:14;;;;;;;7.30;3.38;;;;;;;2.60;54.20;102275.75;5115518;28;20047;-65
2022/04/03 00:10:41;;;;;;;6.95;3.20;;;;;;;2.57;53.85;102277.25;5116967;28;20019;-65
2022/04/03 00:13:06;;;;;;;6.68;3.38;;;;;;;2.53;54.42;102275.22;5117126;28;20027;-65
2022/04/03 00:15:32;;;;;;;5.05;3.33;;;;;;;2.53;54.46;102278.78;5116875;28;20080;-65
2022/04/03 00:17:58;;;;;;;5.93;2.92;;;;;;;2.55;54.51;102282.38;5116760;28;20020;-65
2022/04/03 00:20:37;;;;;;;5.90;3.10;;;;;;;2.61;53.91;102280.19;5116728;28;20020;-64
2022/04/03 00:23:03;;;;;;;6.47;3.10;;;;;;;2.61;53.98;102277.56;5116921;28;20024;-65
2022/04/03 00:25:29;;;;;;;6.25;3.30;;;;;;;2.59;53.80;102275.66;5116892;28;20069;-64
2022/04/03 00:27:54;;;;;;;6.45;3.28;;;;;;;2.57;54.22;102275.56;5117282;28;20361;-65
2022/04/03 00:30:20;;;;;;;7.38;3.80;;;;;;;2.58;54.34;102276.47;5117253;28;20471;-65
2022/04/03 00:32:45;;;;;;;5.53;3.28;;;;;;;2.57;53.84;102272.03;5116945;28;20472;-65
2022/04/03 00:35:11;;;;;;;8.40;3.10;;;;;;;2.60;54.22;102278.34;5116986;28;20391;-65
2022/04/03 00:37:36;;;;;;;4.78;3.10;;;;;;;2.56;54.72;102278.94;5117127;28;20437;-65
2022/04/03 00:40:03;;;;;;;8.68;3.30;;;;;;;2.58;54.78;102271.25;5116727;28;20023;-65
2022/04/03 00:42:28;;;;;;;5.85;3.22;;;;;;;2.67;54.63;102271.84;5115663;28;20045;-66
2022/04/03 00:44:54;;;;;;;6.63;3.28;;;;;;;2.60;54.63;102277.44;5114615;28;20027;-65
2022/04/03 00:47:20;;;;;;;8.02;3.45;;;;;;;2.51;54.44;102281.25;5115715;28;20024;-66
2022/04/03 00:49:46;;;;;;;6.15;3.17;;;;;;;2.42;55.08;102278.03;5115520;28;20102;-66
2022/04/03 00:52:13;;;;;;;6.93;3.28;;;;;;;2.25;55.41;102282.13;5116468;28;20036;-66
2022/04/03 00:54:38;;;;;;;8.05;3.47;;;;;;;2.09;55.89;102276.66;5116968;28;20026;-66
2022/04/03 00:57:07;;;;;;;7.43;3.20;;;;;;;2.01;56.20;102272.63;5114926;28;20023;-65
2022/04/03 00:59:41;;;;;;;6.10;3.30;;;;;;;2.02;56.35;102286.59;5115899;28;20034;-65
2022/04/03 01:02:06;;;;;;;8.90;3.30;;;;;;;1.92;56.88;102280.72;5115543;28;20055;-66
2022/04/03 01:04:32;;;;;;;5.32;3.00;;;;;;;1.88;57.20;102286.53;5115707;28;20465;-66
2022/04/03 01:06:58;;;;;;;5.35;3.47;;;;;;;1.84;57.19;102283.63;5115396;28;20027;-65
2022/04/03 01:09:23;;;;;;;5.53;3.45;;;;;;;1.82;57.08;102282.63;5115437;28;20055;-65
2022/04/03 01:11:49;;;;;;;5.90;3.50;;;;;;;1.80;57.47;102273.78;5115110;28;20405;-65
2022/04/03 01:14:30;;;;;;;9.27;3.33;;;;;;;1.84;57.63;102275.78;5115259;28;20023;-66
2022/04/03 01:16:55;;;;;;;5.97;3.50;;;;;;;1.80;57.98;102276.38;5115182;28;20057;-65
2022/04/03 01:19:20;;;;;;;5.57;3.38;;;;;;;1.75;58.05;102274.34;5115115;28;20020;-65
2022/04/03 01:21:46;;;;;;;6.13;3.80;;;;;;;1.72;57.83;102278.47;5115169;28;20030;-65
2022/04/03 01:24:19;;;;;;;5.78;3.40;;;;;;;1.77;58.10;102274.47;5115052;28;20069;-65
2022/04/03 01:26:46;;;;;;;6.75;3.53;;;;;;;1.89;57.91;102283.16;5115011;28;20031;-65
2022/04/03 01:29:11;;;;;;;7.18;3.47;;;;;;;1.93;58.03;102279.97;5115010;28;20028;-66
2022/04/03 01:31:36;;;;;;;6.35;3.65;;;;;;;1.94;57.23;102279.16;5114758;28;20031;-65
2022/04/03 01:34:02;;;;;;;5.93;3.75;;;;;;;1.95;57.32;102275.75;5115036;28;20030;-65
2022/04/03 01:36:27;;;;;;;8.35;3.55;;;;;;;1.95;56.98;102282.66;5114888;28;20092;-65
2022/04/03 01:38:53;;;;;;;5.50;3.13;;;;;;;2.02;57.03;102270.97;5114726;28;20028;-65
2022/04/03 01:41:18;;;;;;;10.40;3.50;;;;;;;2.05;57.13;102268.53;5114659;28;20102;-65
2022/04/03 01:43:44;;;;;;;8.38;3.60;;;;;;;2.04;57.09;102269.34;5113225;28;20120;-66
2022/04/03 01:46:09;;;;;;;4.88;3.30;;;;;;;2.05;57.34;102264.22;5115704;28;20054;-65
2022/04/03 01:48:35;;;;;;;8.43;3.72;;;;;;;2.09;57.50;102267.94;5115882;28;20020;-65
2022/04/03 01:51:00;;;;;;;8.50;3.50;;;;;;;2.19;56.80;102257.38;5115064;28;20491;-65
2022/04/03 01:53:26;;;;;;;6.95;3.70;;;;;;;2.18;56.75;102260.75;5114722;28;20032;-65
2022/04/03 01:56:05;;;;;;;6.47;3.60;;;;;;;2.18;56.92;102265.97;5114654;28;20034;-64
2022/04/03 01:58:32;;;;;;;7.60;3.95;;;;;;;2.11;56.80;102267.28;5113071;28;20468;-65
2022/04/03 02:00:59;;;;;;;4.95;3.42;;;;;;;2.14;56.93;102264.88;5113888;28;20027;-66
2022/04/03 02:03:25;;;;;;;7.63;3.72;;;;;;;2.14;57.00;102261.34;5113986;28;20024;-65
2022/04/03 02:05:50;;;;;;;7.68;3.60;;;;;;;2.00;57.62;102240.44;5114399;28;20023;-65
2022/04/03 02:08:16;;;;;;;6.28;3.50;;;;;;;2.03;57.15;102262.34;5114431;28;20038;-65
2022/04/03 02:10:42;;;;;;;7.97;3.80;;;;;;;1.91;57.55;102265.00;5114254;28;20058;-65
2022/04/03 02:13:08;;;;;;;9.07;4.20;;;;;;;1.83;58.01;102261.88;5114361;28;20031;-66
2022/04/03 02:15:34;;;;;;;5.35;3.67;;;;;;;1.74;58.22;102250.81;5114226;28;20468;-65
2022/04/03 02:18:00;;;;;;;7.97;3.83;;;;;;;1.69;57.57;102255.72;5114044;28;20383;-65
2022/04/03 02:20:27;;;;;;;7.55;3.85;;;;;;;1.71;57.55;102261.00;5114032;28;20049;-66
2022/04/03 02:22:52;;;;;;;8.02;4.47;;;;;;;1.68;58.03;102264.34;5114109;28;20024;-66
2022/04/03 02:25:17;;;;;;;6.03;3.88;;;;;;;1.64;57.78;102248.38;5113951;28;20483;-66
2022/04/03 02:27:46;;;;;;;7.53;3.72;;;;;;;1.61;58.27;102263.78;5113985;28;20019;-66
2022/04/03 02:30:13;;;;;;;7.53;4.00;;;;;;;1.56;58.36;102260.88;5113883;28;20020;-66
2022/04/03 02:32:40;;;;;;;8.00;3.83;;;;;;;1.48;58.30;102259.44;5114135;28;20382;-65
2022/04/03 02:35:09;;;;;;;5.57;3.75;;;;;;;1.40;58.58;102258.88;5113884;28;20104;-66
2022/04/03 02:37:36;;;;;;;6.75;3.88;;;;;;;1.38;58.85;102259.59;5113777;28;20019;-66
2022/04/03 02:40:04;;;;;;;6.45;4.15;;;;;;;1.24;58.92;102237.75;5113703;28;20102;-65
2022/04/03 02:42:30;;;;;;;6.38;3.78;;;;;;;1.32;58.85;102253.94;5113390;28;20040;-65
2022/04/03 02:44:56;;;;;;;6.95;3.80;;;;;;;1.27;58.89;102250.09;5113769;28;20023;-64
2022/04/03 02:47:22;;;;;;;6.60;3.53;;;;;;;1.36;59.32;102256.84;5113647;28;20073;-66
2022/04/03 02:49:50;;;;;;;7.07;3.83;;;;;;;1.42;58.72;102253.81;5113671;28;20035;-66
2022/04/03 02:52:16;;;;;;;5.80;3.83;;;;;;;1.45;58.56;102254.91;5113755;28;20028;-66
2022/04/03 02:54:41;;;;;;;5.55;3.60;;;;;;;1.32;59.00;102246.13;5113697;28;20077;-66
2022/04/03 02:57:07;;;;;;;6.40;3.75;;;;;;;1.33;59.27;102261.88;5113567;28;20054;-65
2022/04/03 02:59:33;;;;;;;8.30;4.05;;;;;;;1.30;58.65;102258.16;5113690;28;20034;-65
2022/04/03 03:01:59;;;;;;;5.25;3.50;;;;;;;1.30;58.67;102263.34;5113572;28;20059;-65
2022/04/03 03:04:24;;;;;;;8.07;3.83;;;;;;;1.24;59.07;102259.53;5113481;28;20031;-64
2022/04/03 03:06:50;;;;;;;7.53;3.60;;;;;;;1.27;58.90;102263.13;5113724;28;20023;-65
2022/04/03 03:09:17;;;;;;;7.97;4.10;;;;;;;1.27;59.44;102265.72;5113578;28;20023;-66
2022/04/03 03:11:43;;;;;;;6.95;3.72;;;;;;;1.24;59.09;102256.00;5113636;28;20464;-65
2022/04/03 03:14:08;;;;;;;5.53;3.33;;;;;;;1.31;59.13;102268.66;5116786;28;20022;-66
2022/04/03 03:16:34;;;;;;;8.82;4.15;;;;;;;1.35;59.38;102268.06;5117515;28;20586;-66
2022/04/03 03:18:59;;;;;;;6.07;3.75;;;;;;;1.36;59.21;102271.59;5117475;28;20375;-65
2022/04/03 03:21:25;;;;;;;8.43;3.92;;;;;;;1.36;58.90;102268.97;5117660;28;20051;-65
2022/04/03 03:23:50;;;;;;;6.57;3.47;;;;;;;1.31;59.09;102263.44;5117583;28;20106;-65
2022/04/03 03:26:16;;;;;;;8.32;3.70;;;;;;;1.32;58.71;102273.06;5117423;28;20027;-65
2022/04/03 03:28:42;;;;;;;7.07;3.72;;;;;;;1.36;58.88;102274.19;5117457;27;20536;-66
2022/04/03 03:31:07;;;;;;;7.75;4.03;;;;;;;1.40;58.87;102278.81;5117196;28;20028;-64
2022/04/03 03:33:34;;;;;;;7.15;3.90;;;;;;;1.38;58.61;102286.53;5117077;28;20568;-65
2022/04/03 03:35:59;;;;;;;8.13;3.83;;;;;;;1.35;58.36;102277.59;5115891;28;20050;-65
2022/04/03 03:38:24;;;;;;;4.28;3.13;;;;;;;1.33;58.43;102280.09;5117211;28;20472;-65
2022/04/03 03:40:50;;;;;;;6.88;3.72;;;;;;;1.29;58.81;102277.19;5117030;28;20020;-65
2022/04/03 03:43:15;;;;;;;7.13;4.00;;;;;;;1.24;59.13;102277.75;5116914;28;20052;-65
2022/04/03 03:45:41;;;;;;;7.90;3.53;;;;;;;1.22;59.57;102275.81;5117093;28;20054;-66
2022/04/03 03:48:10;;;;;;;9.13;3.58;;;;;;;1.17;58.85;102278.09;5116746;28;20503;-66
2022/04/03 03:50:37;;;;;;;6.05;3.78;;;;;;;1.09;59.08;102278.34;5117009;28;20082;-65
2022/04/03 03:53:02;;;;;;;7.75;3.90;;;;;;;1.00;59.31;102276.88;5117021;28;20028;-65
2022/04/03 03:55:28;;;;;;;10.23;3.92;;;;;;;0.95;59.52;102280.84;5116976;28;20030;-65
2022/04/03 03:57:53;;;;;;;7.10;3.83;;;;;;;0.88;59.65;102275.09;5116949;28;20153;-65
2022/04/03 04:00:19;;;;;;;5.88;3.80;;;;;;;0.83;59.99;102268.66;5116737;28;20020;-65
2022/04/03 04:02:47;;;;;;;8.50;3.67;;;;;;;0.77;60.49;102269.09;5116611;28;20024;-65
2022/04/03 04:05:13;;;;;;;6.00;3.83;;;;;;;0.72;60.97;102276.56;5116581;28;20028;-65
2022/04/03 04:07:38;;;;;;;6.45;4.03;;;;;;;0.74;60.47;102282.78;5116929;28;20130;-65
2022/04/03 04:10:04;;;;;;;6.72;3.88;;;;;;;0.72;60.40;102275.66;5116671;28;20024;-65
2022/04/03 04:12:29;;;;;;;6.20;3.63;;;;;;;0.69;60.63;102278.97;5115180;28;20107;-65
2022/04/03 04:14:55;;;;;;;8.95;3.70;;;;;;;0.59;60.57;102267.75;5116601;28;20024;-65
2022/04/03 04:17:21;;;;;;;8.38;4.03;;;;;;;0.60;60.45;102274.75;5115086;28;20027;-65
2022/04/03 04:19:48;;;;;;;7.57;3.92;;;;;;;0.57;61.14;102275.44;5116456;28;20071;-65
2022/04/03 04:22:13;;;;;;;8.55;3.80;;;;;;;0.55;60.67;102277.03;5116219;28;20422;-65
2022/04/03 04:24:39;;;;;;;8.70;4.00;;;;;;;0.48;60.88;102274.78;5114160;28;20020;-65
2022/04/03 04:27:04;;;;;;;9.73;3.90;;;;;;;0.48;61.06;102292.97;5116208;28;20053;-65
2022/04/03 04:29:29;;;;;;;6.63;3.50;;;;;;;0.37;61.15;102292.16;5116164;28;20051;-65
2022/04/03 04:31:55;;;;;;;6.97;3.70;;;;;;;0.32;61.39;102282.22;5116071;28;20029;-65
2022/04/03 04:34:20;;;;;;;8.77;3.70;;;;;;;0.31;61.30;102286.53;5115958;28;20023;-65
2022/04/03 04:36:47;;;;;;;8.35;4.00;;;;;;;0.30;61.74;102295.13;5116042;28;20031;-65
2022/04/03 04:39:12;;;;;;;6.22;3.75;;;;;;;0.27;61.82;102279.28;5114714;28;20399;-65
2022/04/03 04:41:38;;;;;;;6.70;3.90;;;;;;;0.25;61.90;102278.25;5115872;28;20027;-66
2022/04/03 04:44:03;;;;;;;9.13;4.20;;;;;;;0.31;61.47;102280.41;5115769;28;20488;-65
2022/04/03 04:46:29;;;;;;;5.50;3.58;;;;;;;0.38;61.31;102283.56;5115734;28;20074;-65
2022/04/03 04:48:54;;;;;;;7.85;3.75;;;;;;;0.39;61.48;102287.09;5115738;28;20028;-65
2022/04/03 04:51:20;;;;;;;6.75;3.83;;;;;;;0.32;61.44;102295.22;5115719;28;20057;-65
2022/04/03 04:53:45;;;;;;;6.10;3.70;;;;;;;0.28;61.73;102293.19;5115724;28;20020;-64
2022/04/03 04:56:12;;;;;;;8.68;4.00;;;;;;;0.18;62.25;102309.78;5115740;28;20016;-65
2022/04/03 04:58:37;;;;;;;8.63;3.72;;;;;;;0.20;61.65;102318.59;5115622;28;20502;-65
2022/04/03 05:01:03;;;;;;;7.30;3.65;;;;;;;0.12;61.65;102305.00;5115432;28;20059;-65
2022/04/03 05:03:28;;;;;;;7.60;3.65;;;;;;;0.11;61.75;102312.69;5115583;28;20043;-65
2022/04/03 05:05:55;;;;;;;9.82;4.05;;;;;;;0.10;61.69;102314.38;5115035;28;20030;-65
2022/04/03 05:08:21;;;;;;;6.05;3.38;;;;;;;0.13;61.96;102322.44;5114956;28;20027;-65
2022/04/03 05:10:50;;;;;;;6.50;3.60;;;;;;;0.18;61.71;102313.28;5115117;28;20064;-65
2022/04/03 05:13:15;;;;;;;8.57;3.83;;;;;;;0.16;62.15;102320.03;5114797;28;20023;-65
2022/04/03 05:15:41;;;;;;;9.13;3.83;;;;;;;0.05;62.26;102317.44;5114920;28;20329;-65
2022/04/03 05:18:07;;;;;;;7.70;3.70;;;;;;;-0.06;63.03;102314.91;5114630;28;20031;-65
2022/04/03 05:20:37;;;;;;;7.00;3.97;;;;;;;-0.08;63.55;102315.59;5114519;28;20015;-65
2022/04/03 05:23:03;;;;;;;7.32;3.45;;;;;;;-0.12;63.52;102306.66;5114791;28;20027;-64
2022/04/03 05:25:29;;;;;;;7.40;3.90;;;;;;;-0.02;63.15;102316.94;5114756;28;20028;-65
2022/04/03 05:27:54;;;;;;;5.78;3.63;;;;;;;0.02;63.03;102322.38;5114452;28;20061;-65
2022/04/03 05:30:19;;;;;;;7.85;3.90;;;;;;;-0.06;63.67;102314.00;5114374;28;20137;-65
2022/04/03 05:32:45;;;;;;;7.75;3.78;;;;;;;0.02;63.72;102323.28;5143701;22;20056;-60
2022/04/03 05:35:11;;;;;;;6.78;3.92;;;;;;;0.09;63.40;102322.97;5054013;28;20025;-62
2022/04/03 05:37:37;;;;;;;8.82;3.80;;;;;;;0.24;62.84;102334.53;5054124;28;20214;-62
2022/04/03 05:40:04;;;;;;;7.80;3.75;;;;;;;0.33;62.51;102329.13;5054136;28;20499;-62
2022/04/03 05:42:30;;;;;;;6.28;3.92;;;;;;;0.38;62.69;102330.38;5054023;28;20029;-62
2022/04/03 05:44:55;;;;;;;7.25;3.60;;;;;;;0.44;62.30;102338.66;5054000;28;20021;-62
2022/04/03 05:47:20;;;;;;;9.07;3.90;;;;;;;0.47;62.56;102332.75;5053919;28;20059;-62
2022/04/03 05:49:46;;;;;;;5.88;3.65;;;;;;;0.46;63.10;102342.25;5053869;28;20029;-61
2022/04/03 05:52:12;;;;;;;6.35;3.60;;;;;;;0.38;63.91;102342.47;5053866;28;20032;-62
2022/04/03 05:54:37;;;;;;;10.90;4.13;;;;;;;0.35;64.23;102339.66;5053770;28;20036;-61
2022/04/03 05:57:03;;;;;;;9.95;4.22;;;;;;;0.38;63.81;102337.25;5053862;28;20025;-64
2022/04/03 05:59:28;;;;;;;7.30;3.67;;;;;;;0.44;64.25;102348.16;5053787;28;20091;-62
2022/04/03 06:01:54;;;;;;;7.63;3.85;;;;;;;0.55;63.94;102346.34;5053785;28;20385;-62
2022/04/03 06:04:19;;;;;;;7.38;3.85;;;;;;;0.67;63.71;102337.75;5053580;28;20053;-62
2022/04/03 06:06:44;;;;;;;7.18;4.10;;;;;;;0.80;63.75;102342.16;5053486;28;20021;-61
2022/04/03 06:09:10;;;;;;;8.13;3.85;;;;;;;0.89;63.68;102345.44;5053631;28;20049;-60
2022/04/03 06:11:35;;;;;;;7.93;4.10;;;;;;;0.95;63.49;102348.53;5053626;28;20083;-62
2022/04/03 06:14:01;;;;;;;12.55;4.22;;;;;;;0.95;64.36;102348.53;5053414;28;20083;-62
2022/04/03 06:16:27;;;;;;;10.20;4.63;;;;;;;1.01;65.21;102350.66;5053567;28;20055;-62
2022/04/03 06:18:53;;;;;;;9.10;5.28;;;;;;;1.07;65.19;102348.53;5053376;28;20078;-63
2022/04/03 06:21:19;;;;;;;7.40;4.30;;;;;;;1.11;64.56;102352.22;5053183;28;20416;-62
2022/04/03 06:23:44;;;;;;;8.07;4.00;;;;;;;1.15;64.81;102354.25;5053358;28;20032;-62
2022/04/03 06:26:10;;;;;;;6.65;4.22;;;;;;;1.25;64.32;102349.84;5053389;28;20029;-61
2022/04/03 06:28:35;;;;;;;8.27;4.30;;;;;;;1.38;64.80;102355.94;5053192;28;20389;-63
2022/04/03 06:31:01;;;;;;;10.95;4.70;;;;;;;1.53;64.76;102351.81;5053452;28;20044;-64
2022/04/03 06:33:26;;;;;;;8.13;4.35;;;;;;;1.62;64.16;102348.97;5053031;28;20045;-62
2022/04/03 06:35:52;;;;;;;8.65;4.32;;;;;;;1.66;64.75;102346.69;5053096;28;20104;-63
2022/04/03 06:38:17;;;;;;;9.27;4.40;;;;;;;1.68;64.30;102350.31;5052899;28;20049;-62
2022/04/03 06:40:51;;;;;;;6.60;4.07;;;;;;;1.69;64.51;102352.13;5053037;28;20469;-62
2022/04/03 06:43:24;;;;;;;10.50;4.75;;;;;;;1.75;65.05;102346.41;5052973;28;20036;-62
2022/04/03 06:45:51;;;;;;;8.98;4.53;;;;;;;1.86;64.59;102349.78;5053278;28;20021;-63
2022/04/03 06:48:16;;;;;;;8.35;4.55;;;;;;;1.89;64.43;102356.13;5052567;28;20029;-62
2022/04/03 06:50:42;;;;;;;7.72;4.32;;;;;;;1.93;64.42;102346.84;5052869;28;20029;-62
2022/04/03 06:53:08;;;;;;;9.32;4.90;;;;;;;2.03;64.31;102350.97;5053243;28;20025;-62
2022/04/03 06:55:34;;;;;;;9.40;5.10;;;;;;;2.10;63.91;102351.50;5052982;28;20054;-63
2022/04/03 06:57:59;;;;;;;11.45;5.10;;;;;;;2.14;64.52;102350.00;5053011;28;20473;-63
2022/04/03 07:00:26;;;;;;;9.77;4.72;;;;;;;2.20;64.97;102351.34;5053125;28;20102;-63
2022/04/03 07:02:51;;;;;;;9.20;4.72;;;;;;;2.32;65.05;102363.41;5052912;28;20029;-63
2022/04/03 07:05:17;;;;;;;13.63;4.78;;;;;;;2.53;65.06;102345.66;5052923;28;20032;-63
2022/04/03 07:07:43;;;;;;;8.93;4.95;;;;;;;2.66;64.48;102350.94;5052869;28;20017;-62
2022/04/03 07:10:09;;;;;;;14.85;4.90;;;;;;;2.74;64.04;102352.31;5052845;28;20029;-63
2022/04/03 07:12:34;;;;;;;8.75;5.32;;;;;;;2.88;63.99;102351.56;5052746;28;20064;-63
2022/04/03 07:14:59;;;;;;;11.35;5.20;;;;;;;2.99;63.84;102352.25;5052907;28;20473;-62
2022/04/03 07:17:25;;;;;;;13.70;5.35;;;;;;;3.00;63.17;102349.75;5034839;28;20051;-63
2022/04/03 07:19:50;;;;;;;9.32;5.55;;;;;;;3.05;63.42;102346.53;5052718;28;20466;-64
2022/04/03 07:22:16;;;;;;;12.05;5.40;;;;;;;3.06;64.08;102356.19;5052501;28;20036;-63
2022/04/03 07:24:41;;;;;;;11.88;5.90;;;;;;;3.13;63.75;102353.16;5052732;28;20031;-63
2022/04/03 07:27:07;;;;;;;17.02;6.13;;;;;;;3.30;63.26;102343.78;5052900;28;20118;-63
2022/04/03 07:29:33;;;;;;;8.85;5.85;;;;;;;3.63;63.75;102347.63;5052934;28;20107;-64
2022/04/03 07:31:59;;;;;;;9.52;5.68;;;;;;;3.95;63.06;102349.66;5052676;28;20036;-64
2022/04/03 07:34:25;;;;;;;8.98;5.63;;;;;;;4.30;62.13;102350.91;5033644;28;20050;-64
2022/04/03 07:36:50;;;;;;;10.05;6.10;;;;;;;4.68;61.53;102351.47;5032555;28;20038;-63
2022/04/03 07:39:15;;;;;;;11.63;5.85;;;;;;;5.07;61.08;102357.19;5032519;28;20040;-63
2022/04/03 07:41:41;;;;;;;10.23;5.88;;;;;;;5.44;59.79;102364.53;5032641;28;20025;-63
2022/04/03 07:44:08;;;;;;;8.63;5.47;;;;;;;5.80;59.30;102359.50;5032614;28;20104;-64
2022/04/03 07:46:37;;;;;;;8.52;5.20;;;;;;;6.14;57.39;102357.91;5032841;28;20051;-64
2022/04/03 07:49:04;;;;;;;7.47;5.38;;;;;;;6.55;56.80;102352.97;5032526;28;20116;-62
2022/04/03 07:51:29;;;;;;;7.28;4.97;;;;;;;6.89;56.29;102355.59;5032442;28;20025;-64
2022/04/03 07:53:55;;;;;;;7.80;5.45;;;;;;;7.31;56.28;102358.53;5032400;28;20084;-64
2022/04/03 07:56:21;;;;;;;11.05;5.10;;;;;;;7.63;54.23;102358.34;5032532;28;20104;-63
2022/04/03 07:58:46;;;;;;;9.65;5.22;;;;;;;8.04;54.30;102356.69;5032537;28;20064;-63
2022/04/03 08:01:12;;;;;;;10.88;4.38;;;;;;;8.39;51.99;102357.41;5035041;28;20057;-63
2022/04/03 08:03:37;;;;;;;7.28;4.40;;;;;;;8.79;51.54;102360.03;5036061;28;20075;-64
2022/04/03 08:06:03;;;;;;;9.02;4.30;;;;;;;9.03;49.62;102350.50;5035984;28;20022;-63
2022/04/03 08:08:28;;;;;;;8.65;4.28;;;;;;;9.15;49.13;102351.84;5035744;28;20378;-63
2022/04/03 08:10:54;;;;;;;5.25;3.38;;;;;;;9.40;47.88;102356.38;5035849;28;20801;-64
2022/04/03 08:13:20;;;;;;;6.28;3.25;;;;;;;9.50;45.76;102359.41;5035754;28;20029;-64
2022/04/03 08:15:46;;;;;;;6.78;3.15;;;;;;;9.62;46.00;102351.09;5035740;28;20056;-63
2022/04/03 08:18:12;;;;;;;6.68;3.15;;;;;;;9.84;45.71;102360.72;5035675;28;20064;-64
2022/04/03 08:20:38;;;;;;;5.15;2.80;;;;;;;10.14;44.71;102360.97;5035783;28;20033;-64
2022/04/03 08:23:05;;;;;;;6.78;2.95;;;;;;;10.29;42.58;102355.41;5035581;28;20029;-65
2022/04/03 08:25:34;;;;;;;3.40;2.40;;;;;;;10.28;41.63;102364.19;5035614;28;20180;-64
2022/04/03 08:28:02;;;;;;;5.57;2.80;;;;;;;10.32;41.43;102363.44;5035719;28;20115;-65
2022/04/03 08:30:38;;;;;;;7.32;2.80;;;;;;;10.35;43.33;102358.25;5035481;28;20394;-64
2022/04/03 08:33:05;;;;;;;7.00;2.60;;;;;;;10.40;42.65;102358.41;5035172;28;20061;-65
2022/04/03 08:35:32;;;;;;;4.30;2.25;;;;;;;10.71;41.20;102360.41;5035459;28;20490;-65
2022/04/03 08:37:58;;;;;;;5.85;2.60;;;;;;;10.79;41.96;102358.91;5035359;28;20060;-65
2022/04/03 08:40:26;;;;;;;7.32;2.22;;;;;;;10.96;41.07;102360.41;5035229;28;20463;-65
2022/04/03 08:42:54;;;;;;;4.72;2.25;;;;;;;11.03;40.05;102361.47;5035136;28;20501;-65
2022/04/03 08:45:20;;;;;;;3.88;2.28;;;;;;;11.11;41.53;102359.09;5017629;28;20025;-64
2022/04/03 08:47:48;;;;;;;4.38;2.33;;;;;;;11.40;40.62;102355.63;5035195;28;20060;-65
2022/04/03 08:50:15;;;;;;;3.65;2.13;;;;;;;11.72;39.83;102358.38;5035163;28;20029;-65
2022/04/03 08:52:52;;;;;;;5.15;2.50;;;;;;;11.89;40.35;102357.16;5034934;28;20072;-66
2022/04/03 08:55:19;;;;;;;4.85;2.40;;;;;;;11.83;39.20;102356.09;5035111;28;20025;-61
2022/04/03 08:57:44;;;;;;;4.82;2.30;;;;;;;11.90;38.97;102358.94;5035060;28;20027;-62
2022/04/03 09:00:11;;;;;;;6.00;2.92;;;;;;;12.05;38.07;102357.63;5034967;28;20108;-65
2022/04/03 09:02:36;;;;;;;8.10;2.70;;;;;;;12.12;38.69;102360.50;5034926;28;20033;-63
2022/04/03 09:05:04;;;;;;;5.20;2.33;;;;;;;12.25;38.38;102353.78;5034682;28;20076;-63
2022/04/03 09:07:30;;;;;;;4.93;2.65;;;;;;;12.43;38.21;102353.41;5034824;28;20030;-62
2022/04/03 09:10:06;;;;;;;5.18;2.45;;;;;;;12.54;37.99;102350.16;5034814;28;20040;-63
2022/04/03 09:12:31;;;;;;;5.32;2.50;;;;;;;12.77;37.73;102348.13;5034724;28;20029;-64
2022/04/03 09:14:58;;;;;;;5.20;2.45;;;;;;;12.94;36.52;102348.56;5034766;28;20423;-64
2022/04/03 09:17:42;;;;;;;4.03;2.50;;;;;;;13.33;37.98;102350.41;5034671;28;20025;-64
2022/04/03 09:20:13;;;;;;;3.85;2.20;;;;;;;13.62;34.93;102347.50;5034816;28;20156;-63
2022/04/03 09:22:41;;;;;;;3.63;2.00;;;;;;;13.45;33.53;102344.50;5034402;28;20548;-64
2022/04/03 09:25:15;;;;;;;3.13;2.00;;;;;;;13.11;34.94;102343.66;5034841;28;20029;-63
2022/04/03 09:27:57;;;;;;;2.90;2.05;;;;;;;12.77;35.95;102334.88;5034532;28;20084;-64
2022/04/03 09:30:37;;;;;;;3.65;2.55;;;;;;;12.56;35.67;102336.97;5034355;28;20052;-64
2022/04/03 09:33:06;;;;;;;3.60;2.00;;;;;;;12.43;36.58;102337.50;5034384;28;20065;-64
2022/04/03 09:35:52;;;;;;;3.38;1.88;;;;;;;12.61;35.93;102337.06;5034396;28;20036;-64
2022/04/03 09:38:17;;;;;;;5.25;2.25;;;;;;;12.74;36.35;102340.09;5034254;28;20111;-64
2022/04/03 09:40:48;;;;;;;3.83;2.15;;;;;;;12.66;36.03;102328.38;5034165;28;20487;-63
2022/04/03 09:43:32;;;;;;;4.22;2.10;;;;;;;12.85;36.40;102339.44;5034204;28;20104;-63
2022/04/03 09:45:59;;;;;;;4.15;2.45;;;;;;;13.04;36.16;102339.06;5034175;28;20072;-64
2022/04/03 09:48:31;;;;;;;4.68;2.00;;;;;;;13.38;34.70;102326.63;5034188;28;20026;-63
2022/04/03 09:51:09;;;;;;;4.10;2.15;;;;;;;13.88;34.80;102329.50;5034021;28;20099;-64
2022/04/03 09:54:00;;;;;;;5.10;1.95;;;;;;;13.98;35.05;102324.41;5033944;28;20041;-64
2022/04/03 09:56:31;;;;;;;4.95;2.00;;;;;;;14.10;34.06;102318.44;5033912;28;20064;-63
2022/04/03 09:59:03;;;;;;;5.47;1.70;;;;;;;14.22;33.77;102317.78;5033954;28;20051;-64
2022/04/03 10:01:35;;;;;;;3.58;1.90;;;;;;;14.55;31.80;102311.31;5033840;28;20307;-64
2022/04/03 10:04:02;;;;;;;3.80;2.47;;;;;;;14.80;32.41;102308.22;5033747;28;20040;-64
2022/04/03 10:06:29;;;;;;;3.55;1.70;;;;;;;15.03;31.47;102314.84;5033739;28;20033;-64
2022/04/03 10:08:55;;;;;;;3.10;1.70;;;;;;;15.35;30.98;102297.53;5033592;28;20466;-63
2022/04/03 10:11:21;;;;;;;4.05;2.00;;;;;;;15.05;30.80;102305.97;5033894;28;20034;-65
2022/04/03 10:13:48;;;;;;;6.40;1.83;;;;;;;14.93;30.62;102301.34;5033509;28;20029;-64
2022/04/03 10:16:14;;;;;;;2.45;1.90;;;;;;;15.23;31.27;102296.47;5033756;28;20430;-64
2022/04/03 10:18:40;;;;;;;5.22;1.85;;;;;;;15.38;29.48;102295.81;5033867;28;20388;-63
2022/04/03 10:21:11;;;;;;;5.82;1.52;;;;;;;15.27;27.64;102294.75;5033533;28;20037;-64
2022/04/03 10:23:40;;;;;;;7.88;2.10;;;;;;;15.07;29.13;102291.78;5033241;28;20355;-63
2022/04/03 10:26:08;;;;;;;5.57;1.80;;;;;;;14.68;29.72;102286.72;5015712;28;20075;-65
2022/04/03 10:28:35;;;;;;;3.72;1.70;;;;;;;14.58;30.98;102290.09;5033422;28;20022;-63
2022/04/03 10:31:07;;;;;;;4.05;1.58;;;;;;;14.42;30.43;102280.91;5015571;28;20032;-64
2022/04/03 10:33:38;;;;;;;2.97;1.80;;;;;;;14.16;30.02;102284.00;5033224;28;20037;-64
2022/04/03 10:36:12;;;;;;;2.35;1.80;;;;;;;14.21;31.12;102278.75;5033567;28;20108;-65
2022/04/03 10:38:54;;;;;;;5.65;1.80;;;;;;;14.56;31.38;102287.44;5033275;28;20367;-63
2022/04/03 10:41:26;;;;;;;;;;;;;;;14.50;31.57;102280.22;5033567;28;20064;-64
2022/04/03 10:44:18;;;;;;;3.15;1.88;;;;;;;14.07;32.42;102275.84;5033052;28;19921;-64
2022/04/03 10:47:01;;;;;;;3.15;1.55;;;;;;;13.78;32.70;102283.22;5015406;28;20029;-64
2022/04/03 10:49:40;;;;;;;3.72;1.60;;;;;;;13.58;30.43;102281.94;5033052;28;20474;-64
2022/04/03 10:52:23;;;;;;;3.13;1.73;;;;;;;13.63;31.29;102275.84;5015387;28;20040;-65
2022/04/03 10:54:49;;;;;;;;;;;;;;;13.71;32.92;102274.25;5033517;28;20474;-65
2022/04/03 10:57:43;;;;;;;5.20;2.28;;;;;;;13.40;32.27;102272.69;5033005;28;19913;-64
2022/04/03 11:00:14;;;;;;;3.80;2.10;;;;;;;13.24;32.28;102276.78;5033066;28;20040;-64
2022/04/03 11:02:50;;;;;;;3.17;2.00;;;;;;;12.98;32.59;102269.94;5032924;28;20386;-64
2022/04/03 11:05:36;;;;;;;3.63;1.85;;;;;;;12.96;33.73;102266.34;5032982;28;20041;-64
2022/04/03 11:08:02;;;;;;;4.05;2.00;;;;;;;12.77;33.62;102270.31;5032749;28;20029;-64
2022/04/03 11:13:09;;;;;;;5.97;1.90;;;;;;;12.50;33.75;102251.94;5115936;22;20477;-90
2022/04/03 11:15:53;;;;;;;3.80;1.95;;;;;;;12.38;34.42;102252.53;5075950;28;20036;-91
2022/04/03 11:18:29;;;;;;;6.03;2.30;;;;;;;12.34;34.33;102250.66;5083522;28;20023;-90
2022/04/03 11:21:26;;;;;;;2.40;1.90;;;;;;;12.18;35.49;102249.34;5077284;28;20119;-90
2022/04/03 11:24:06;;;;;;;3.05;1.60;;;;;;;12.08;34.79;102246.44;5078538;28;20017;-89
2022/04/03 11:26:32;;;;;;;3.67;1.80;;;;;;;12.15;34.80;102248.38;5077528;28;20050;-89
2022/04/03 11:28:58;;;;;;;3.03;1.80;;;;;;;12.00;35.35;102212.66;5076699;28;20020;-93
2022/04/03 11:31:24;;;;;;;4.78;2.00;;;;;;;12.22;34.98;102234.44;5067162;22;20378;-65
2022/04/03 11:33:49;;;;;;;5.97;2.00;;;;;;;12.09;34.65;102240.28;5052869;28;20082;-65
2022/04/03 11:36:17;;;;;;;6.30;1.90;;;;;;;11.81;35.21;102243.88;5056167;28;20033;-65